createdAt,value
2019-02-11T00:00:49.801Z,6.43
2019-02-11T00:03:17.046Z,5.73
2019-02-11T00:05:43.207Z,4.60
2019-02-11T00:08:09.363Z,5.47
2019-02-11T00:10:35.775Z,5.40
2019-02-11T00:13:10.124Z,6.20
2019-02-11T00:15:30.036Z,4.30
2019-02-11T00:17:56.189Z,5.43
2019-02-11T00:20:22.347Z,5.33
2019-02-11T00:22:48.499Z,5.60
2019-02-11T00:25:14.876Z,7.43
2019-02-11T00:27:41.303Z,5.13
2019-02-11T00:30:09.272Z,7.70
2019-02-11T00:32:35.428Z,5.73
2019-02-11T00:35:01.576Z,5.73
2019-02-11T00:37:27.750Z,5.37
2019-02-11T00:39:53.966Z,4.50
2019-02-11T00:42:20.130Z,5.03
2019-02-11T00:44:46.299Z,6.63
2019-02-11T00:47:12.461Z,4.77
2019-02-11T00:49:38.719Z,6.70
2019-02-11T00:52:04.875Z,8.03
2019-02-11T00:54:31.031Z,6.27
2019-02-11T00:56:57.171Z,4.03
2019-02-11T00:59:23.322Z,4.20
2019-02-11T01:01:49.461Z,4.17
2019-02-11T01:04:15.854Z,5.20
2019-02-11T01:06:41.998Z,4.50
2019-02-11T01:09:08.190Z,4.90
2019-02-11T01:11:34.340Z,4.20
2019-02-11T01:14:00.483Z,4.23
2019-02-11T01:16:26.898Z,5.77
2019-02-11T01:18:53.275Z,4.13
2019-02-11T01:21:19.763Z,5.47
2019-02-11T01:23:45.927Z,5.90
2019-02-11T01:26:12.058Z,6.27
2019-02-11T01:28:38.223Z,4.73
2019-02-11T01:31:04.362Z,9.20
2019-02-11T01:33:30.556Z,3.33
2019-02-11T01:35:56.706Z,8.03
2019-02-11T01:38:22.859Z,4.50
2019-02-11T01:40:49.414Z,3.93
2019-02-11T01:43:15.621Z,4.63
2019-02-11T01:45:41.754Z,7.80
2019-02-11T01:48:08.179Z,5.93
2019-02-11T01:50:34.331Z,8.27
2019-02-11T01:53:00.491Z,4.93
2019-02-11T01:55:26.636Z,9.83
2019-02-11T01:57:53.082Z,9.10
2019-02-11T02:00:19.231Z,9.67
2019-02-11T02:02:45.382Z,5.47
2019-02-11T02:05:11.534Z,8.83
2019-02-11T02:07:37.678Z,7.33
2019-02-11T02:10:07.623Z,7.30
2019-02-11T02:12:33.775Z,6.50
2019-02-11T02:14:59.939Z,6.50
2019-02-11T02:17:26.306Z,11.53
2019-02-11T02:19:52.457Z,5.77
2019-02-11T02:22:18.611Z,7.33
2019-02-11T02:24:45.228Z,7.70
2019-02-11T02:27:11.371Z,9.83
2019-02-11T02:29:37.526Z,9.03
2019-02-11T02:32:03.677Z,11.93
2019-02-11T02:34:29.834Z,13.53
2019-02-11T02:36:56.237Z,17.00
2019-02-11T02:39:22.392Z,10.57
2019-02-11T02:41:48.546Z,13.10
2019-02-11T02:44:14.721Z,8.77
2019-02-11T02:46:41.173Z,10.70
2019-02-11T02:49:07.472Z,10.53
2019-02-11T02:51:33.631Z,11.63
2019-02-11T02:53:59.783Z,10.17
2019-02-11T02:56:25.923Z,14.23
2019-02-11T02:58:52.088Z,12.57
2019-02-11T03:01:18.270Z,10.53
2019-02-11T03:03:44.768Z,9.27
2019-02-11T03:06:10.912Z,9.20
2019-02-11T03:08:37.101Z,12.03
2019-02-11T03:11:03.569Z,12.63
2019-02-11T03:13:29.717Z,13.80
2019-02-11T03:15:55.867Z,8.73
2019-02-11T03:18:22.328Z,10.30
2019-02-11T03:20:48.472Z,12.67
2019-02-11T03:23:14.619Z,8.83
2019-02-11T03:25:40.777Z,8.83
2019-02-11T03:28:06.920Z,10.07
2019-02-11T03:30:33.985Z,11.00
2019-02-11T03:33:00.430Z,11.10
2019-02-11T03:35:26.664Z,7.93
2019-02-11T03:37:52.884Z,8.67
2019-02-11T03:40:19.033Z,6.97
2019-02-11T03:42:45.177Z,11.60
2019-02-11T03:45:12.883Z,16.30
2019-02-11T03:47:40.036Z,7.83
2019-02-11T03:50:08.430Z,14.40
2019-02-11T03:52:34.590Z,11.13
2019-02-11T03:55:00.753Z,10.33
2019-02-11T03:57:26.896Z,12.70
2019-02-11T03:59:53.108Z,12.17
2019-02-11T04:02:19.244Z,10.30
2019-02-11T04:04:45.437Z,13.20
2019-02-11T04:07:11.578Z,15.27
2019-02-11T04:09:37.734Z,15.30
2019-02-11T04:12:03.911Z,13.57
2019-02-11T04:14:30.224Z,11.93
2019-02-11T04:16:56.366Z,15.87
2019-02-11T04:19:22.520Z,15.57
2019-02-11T04:22:01.776Z,14.97
2019-02-11T04:24:27.928Z,17.27
2019-02-11T04:26:54.090Z,12.83
2019-02-11T04:29:20.542Z,9.70
2019-02-11T04:31:46.789Z,10.00
2019-02-11T04:34:13.225Z,9.63
2019-02-11T04:36:39.377Z,9.90
2019-02-11T04:39:05.529Z,9.93
2019-02-11T04:41:32.719Z,7.73
2019-02-11T04:43:58.959Z,7.97
2019-02-11T04:46:25.112Z,8.47
2019-02-11T04:48:51.246Z,10.47
2019-02-11T04:51:28.119Z,7.23
2019-02-11T04:53:54.301Z,6.10
2019-02-11T04:56:20.485Z,7.37
2019-02-11T04:58:46.622Z,6.67
2019-02-11T05:01:12.811Z,7.90
2019-02-11T05:03:39.073Z,10.93
2019-02-11T05:06:05.219Z,6.70
2019-02-11T05:08:31.368Z,6.57
2019-02-11T05:10:57.835Z,9.97
2019-02-11T05:13:24.248Z,4.97
2019-02-11T05:15:50.799Z,6.13
2019-02-11T05:18:17.215Z,5.40
2019-02-11T05:20:43.498Z,6.07
2019-02-11T05:23:09.683Z,6.47
2019-02-11T05:25:35.827Z,7.07
2019-02-11T05:28:02.008Z,8.97
2019-02-11T05:30:28.506Z,8.80
2019-02-11T05:32:54.700Z,8.67
2019-02-11T05:35:20.932Z,13.67
2019-02-11T05:37:47.071Z,12.20
2019-02-11T05:40:13.268Z,16.33
2019-02-11T05:42:39.471Z,17.50
2019-02-11T05:45:06.963Z,18.03
2019-02-11T05:47:34.511Z,18.50
2019-02-11T05:50:00.694Z,21.23
2019-02-11T05:52:26.847Z,20.93
2019-02-11T05:54:53.034Z,17.90
2019-02-11T05:57:19.555Z,21.10
2019-02-11T05:59:45.970Z,24.13
2019-02-11T06:02:13.862Z,16.83
2019-02-11T06:04:40.008Z,21.27
2019-02-11T06:07:06.169Z,10.97
2019-02-11T06:09:32.312Z,18.20
2019-02-11T06:11:58.528Z,16.30
2019-02-11T06:14:24.677Z,18.30
2019-02-11T06:16:50.844Z,14.90
2019-02-11T06:19:17.033Z,13.13
2019-02-11T06:21:44.225Z,12.37
2019-02-11T06:24:10.408Z,18.57
2019-02-11T06:26:36.580Z,14.10
2019-02-11T06:29:02.731Z,11.17
2019-02-11T06:31:29.006Z,13.57
2019-02-11T06:33:55.149Z,18.73
2019-02-11T06:36:21.673Z,13.93
2019-02-11T06:38:47.804Z,18.13
2019-02-11T06:41:14.996Z,15.87
2019-02-11T06:43:41.186Z,20.70
2019-02-11T06:46:07.686Z,16.67
2019-02-11T06:48:33.843Z,16.47
2019-02-11T06:51:00.252Z,12.80
2019-02-11T06:53:26.395Z,22.27
2019-02-11T06:55:52.549Z,18.37
2019-02-11T06:58:18.743Z,16.87
2019-02-11T07:00:44.899Z,16.37
2019-02-11T07:03:11.055Z,20.30
2019-02-11T07:05:37.241Z,18.97
2019-02-11T07:08:03.746Z,21.40
2019-02-11T07:10:29.896Z,12.93
2019-02-11T07:12:56.399Z,17.10
2019-02-11T07:15:22.613Z,20.27
2019-02-11T07:17:48.911Z,14.73
2019-02-11T07:20:15.061Z,22.07
2019-02-11T07:22:41.239Z,20.20
2019-02-11T07:25:08.095Z,20.57
2019-02-11T07:27:34.243Z,17.37
2019-02-11T07:30:00.402Z,11.33
2019-02-11T07:32:26.547Z,16.60
2019-02-11T07:34:52.718Z,18.23
2019-02-11T07:37:19.867Z,11.53
2019-02-11T07:39:46.056Z,25.53
2019-02-11T07:42:16.648Z,27.80
2019-02-11T07:44:44.417Z,21.13
2019-02-11T07:47:10.644Z,17.63
2019-02-11T07:49:36.795Z,17.00
2019-02-11T07:52:02.965Z,20.83
2019-02-11T07:54:29.122Z,17.10
2019-02-11T07:56:55.284Z,21.80
2019-02-11T07:59:21.483Z,21.60
2019-02-11T08:01:47.736Z,17.40
2019-02-11T08:04:13.917Z,19.73
2019-02-11T08:06:40.139Z,21.00
2019-02-11T08:09:08.519Z,19.10
2019-02-11T08:11:35.090Z,18.43
2019-02-11T08:14:01.539Z,18.20
2019-02-11T08:16:27.694Z,24.27
2019-02-11T08:18:54.873Z,14.77
2019-02-11T08:21:21.018Z,19.37
2019-02-11T08:23:47.176Z,19.53
2019-02-11T08:26:13.715Z,18.27
2019-02-11T08:28:39.863Z,16.27
2019-02-11T08:31:06.273Z,16.60
2019-02-11T08:33:33.429Z,19.67
2019-02-11T08:35:59.578Z,16.40
2019-02-11T08:38:25.723Z,12.37
2019-02-11T08:40:51.883Z,12.57
2019-02-11T08:43:18.323Z,15.87
2019-02-11T08:45:47.133Z,17.87
2019-02-11T08:48:12.526Z,13.03
2019-02-11T08:50:38.735Z,21.00
2019-02-11T08:53:04.981Z,20.67
2019-02-11T08:55:31.440Z,16.90
2019-02-11T08:57:57.588Z,14.10
2019-02-11T09:00:23.750Z,18.87
2019-02-11T09:02:49.904Z,13.60
2019-02-11T09:05:16.089Z,17.47
2019-02-11T09:07:42.295Z,20.30
2019-02-11T09:10:10.436Z,11.10
2019-02-11T09:12:37.741Z,13.73
2019-02-11T09:15:08.034Z,21.10
2019-02-11T09:17:34.219Z,14.63
2019-02-11T09:20:00.363Z,14.03
2019-02-11T09:22:26.539Z,12.60
2019-02-11T09:24:52.733Z,16.33
2019-02-11T09:27:18.896Z,16.30
2019-02-11T09:29:45.200Z,17.57
2019-02-11T09:32:11.415Z,13.07
2019-02-11T09:34:38.066Z,18.13
2019-02-11T09:37:04.382Z,12.30
2019-02-11T09:39:30.528Z,18.57
2019-02-11T09:41:56.675Z,17.10
2019-02-11T09:44:29.531Z,16.53
2019-02-11T09:46:51.007Z,18.43
2019-02-11T09:49:17.168Z,14.17
2019-02-11T09:51:44.057Z,16.60
2019-02-11T09:54:10.551Z,16.63
2019-02-11T09:56:36.965Z,17.60
2019-02-11T09:59:03.159Z,19.57
2019-02-11T10:01:29.304Z,24.57
2019-02-11T10:03:55.458Z,12.87
2019-02-11T10:06:21.883Z,17.47
2019-02-11T10:08:48.044Z,14.53
2019-02-11T10:11:14.427Z,14.23
2019-02-11T10:13:40.600Z,17.03
2019-02-11T10:16:12.274Z,22.57
2019-02-11T10:18:35.028Z,22.63
2019-02-11T10:21:01.179Z,12.70
2019-02-11T10:23:27.429Z,13.73
2019-02-11T10:25:53.578Z,16.47
2019-02-11T10:28:19.757Z,17.23
2019-02-11T10:30:45.912Z,13.53
2019-02-11T10:33:12.472Z,15.93
2019-02-11T10:35:42.320Z,15.70
2019-02-11T10:38:06.954Z,17.47
2019-02-11T10:40:33.157Z,20.13
2019-02-11T10:42:59.386Z,12.40
2019-02-11T10:45:25.751Z,21.83
2019-02-11T10:47:51.918Z,13.00
2019-02-11T10:50:18.109Z,15.03
2019-02-11T10:52:44.517Z,11.87
2019-02-11T10:55:12.908Z,12.87
2019-02-11T10:57:39.197Z,13.83
2019-02-11T11:00:10.839Z,19.97
2019-02-11T11:02:37.103Z,14.63
2019-02-11T11:05:06.300Z,16.10
2019-02-11T11:07:32.725Z,10.13
2019-02-11T11:09:59.123Z,13.90
2019-02-11T11:12:25.292Z,15.53
2019-02-11T11:14:51.492Z,13.43
2019-02-11T11:17:17.731Z,18.23
2019-02-11T11:19:43.891Z,11.50
2019-02-11T11:22:10.062Z,12.47
2019-02-11T11:24:37.250Z,13.40
2019-02-11T11:27:03.647Z,14.40
2019-02-11T11:29:29.787Z,13.07
2019-02-11T11:31:56.236Z,15.33
2019-02-11T11:34:22.360Z,13.83
2019-02-11T11:36:48.569Z,19.47
2019-02-11T11:39:19.475Z,12.60
2019-02-11T11:41:45.742Z,12.67
2019-02-11T11:44:11.880Z,12.63
2019-02-11T11:46:46.746Z,15.27
2019-02-11T11:49:06.108Z,14.67
2019-02-11T11:51:32.354Z,15.97
2019-02-11T11:53:58.576Z,13.13
2019-02-11T11:56:24.857Z,15.43
2019-02-11T11:58:51.033Z,15.67
2019-02-11T12:01:19.243Z,11.70
2019-02-11T12:03:45.274Z,16.47
2019-02-11T12:06:11.445Z,18.90
2019-02-11T12:08:37.682Z,17.93
2019-02-11T12:11:03.922Z,14.53
2019-02-11T12:13:30.372Z,13.07
2019-02-11T12:15:56.645Z,11.43
2019-02-11T12:18:22.856Z,11.80
2019-02-11T12:20:49.012Z,11.07
2019-02-11T12:23:15.173Z,14.93
2019-02-11T12:25:41.572Z,16.87
2019-02-11T12:28:07.795Z,16.73
2019-02-11T12:30:33.934Z,16.47
2019-02-11T12:33:01.233Z,15.03
2019-02-11T12:35:27.461Z,14.03
2019-02-11T12:37:53.676Z,13.63
2019-02-11T12:40:19.905Z,11.47
2019-02-11T12:42:46.219Z,14.53
2019-02-11T12:45:23.507Z,13.93
2019-02-11T12:47:49.670Z,13.67
2019-02-11T12:50:16.931Z,16.67
2019-02-11T12:52:43.188Z,12.20
2019-02-11T12:55:11.322Z,13.70
2019-02-11T12:57:37.559Z,15.83
2019-02-11T13:00:12.575Z,10.23
2019-02-11T13:02:40.491Z,16.40
2019-02-11T13:05:08.029Z,15.30
2019-02-11T13:07:35.209Z,12.97
2019-02-11T13:10:01.527Z,17.07
2019-02-11T13:12:56.031Z,13.27
2019-02-11T13:15:53.361Z,17.57
2019-02-11T13:17:50.447Z,10.30
2019-02-11T13:20:17.026Z,8.57
2019-02-11T13:22:43.311Z,10.07
2019-02-11T13:25:11.415Z,9.83
2019-02-11T13:27:37.552Z,8.63
2019-02-11T13:30:07.323Z,7.90
2019-02-11T13:32:33.520Z,8.07
2019-02-11T13:34:59.773Z,5.83
2019-02-11T13:37:26.972Z,5.03
2019-02-11T13:39:53.141Z,9.90
2019-02-11T13:42:19.267Z,9.33
2019-02-11T13:44:45.443Z,11.33
2019-02-11T13:47:11.788Z,6.83
2019-02-11T13:49:38.042Z,11.43
2019-02-11T13:52:04.192Z,6.63
2019-02-11T13:54:30.382Z,11.80
2019-02-11T13:56:56.657Z,8.40
2019-02-11T13:59:22.866Z,7.63
2019-02-11T14:01:49.027Z,8.67
2019-02-11T14:04:15.271Z,12.67
2019-02-11T14:06:41.498Z,9.80
2019-02-11T14:09:10.579Z,10.97
2019-02-11T14:11:37.455Z,13.90
2019-02-11T14:14:04.197Z,9.00
2019-02-11T14:16:30.612Z,10.83
2019-02-11T14:18:56.733Z,11.80
2019-02-11T14:21:22.948Z,11.03
2019-02-11T14:23:49.173Z,9.63
2019-02-11T14:26:15.443Z,7.67
2019-02-11T14:28:41.644Z,14.53
2019-02-11T14:31:08.052Z,14.07
2019-02-11T14:33:34.588Z,11.43
2019-02-11T14:36:00.911Z,9.67
2019-02-11T14:38:27.279Z,12.77
2019-02-11T14:40:53.731Z,13.47
2019-02-11T14:43:20.024Z,9.97
2019-02-11T14:45:46.352Z,13.77
2019-02-11T14:48:26.537Z,13.30
2019-02-11T14:50:41.148Z,10.27
2019-02-11T14:53:07.618Z,11.20
2019-02-11T14:55:34.128Z,9.80
2019-02-11T14:58:00.287Z,8.60
2019-02-11T15:00:26.531Z,10.67
2019-02-11T15:02:53.110Z,11.00
2019-02-11T15:05:19.656Z,9.37
2019-02-11T15:07:46.280Z,8.63
2019-02-11T15:10:13.125Z,8.13
2019-02-11T15:12:39.383Z,13.97
2019-02-11T15:15:07.930Z,10.63
2019-02-11T15:17:34.396Z,10.23
2019-02-11T15:20:01.940Z,10.50
2019-02-11T15:22:28.323Z,11.57
2019-02-11T15:24:54.722Z,6.83
2019-02-11T15:27:20.891Z,8.57
2019-02-11T15:29:47.370Z,9.63
2019-02-11T15:32:13.572Z,10.20
2019-02-11T15:34:42.256Z,8.10
2019-02-11T15:37:08.728Z,9.90
2019-02-11T15:39:34.882Z,10.43
2019-02-11T15:42:01.399Z,11.90
2019-02-11T15:44:27.928Z,11.23
2019-02-11T15:46:54.084Z,8.60
2019-02-11T15:49:20.255Z,12.87
2019-02-11T15:51:46.516Z,8.87
2019-02-11T15:54:12.670Z,10.73
2019-02-11T15:56:38.869Z,15.40
2019-02-11T15:59:05.013Z,8.23
2019-02-11T16:01:31.527Z,8.97
2019-02-11T16:03:59.879Z,8.97
2019-02-11T16:06:26.244Z,8.57
2019-02-11T16:08:52.421Z,12.80
2019-02-11T16:11:18.566Z,12.17
2019-02-11T16:13:44.717Z,11.30
2019-02-11T16:16:10.867Z,13.33
2019-02-11T16:18:37.018Z,13.10
2019-02-11T16:21:03.200Z,8.90
2019-02-11T16:23:29.345Z,11.17
2019-02-11T16:25:55.487Z,12.57
2019-02-11T16:28:21.753Z,13.80
2019-02-11T16:30:47.896Z,14.97
2019-02-11T16:33:14.053Z,9.57
2019-02-11T16:35:40.214Z,8.53
2019-02-11T16:38:12.212Z,9.30
2019-02-11T16:40:38.364Z,8.80
2019-02-11T16:43:04.760Z,10.93
2019-02-11T16:45:30.923Z,10.60
2019-02-11T16:47:57.075Z,16.50
2019-02-11T16:50:23.280Z,8.67
2019-02-11T16:52:49.555Z,14.77
2019-02-11T16:55:16.004Z,12.57
2019-02-11T16:57:42.161Z,13.77
2019-02-11T17:00:19.259Z,9.87
2019-02-11T17:02:45.553Z,16.03
2019-02-11T17:05:12.511Z,12.17
2019-02-11T17:07:41.907Z,14.70
2019-02-11T17:10:08.941Z,12.60
2019-02-11T17:12:35.092Z,10.60
2019-02-11T17:15:02.126Z,12.37
2019-02-11T17:17:28.521Z,8.13
2019-02-11T17:19:54.682Z,6.97
2019-02-11T17:22:20.836Z,13.33
2019-02-11T17:24:47.981Z,11.93
2019-02-11T17:27:14.169Z,7.97
2019-02-11T17:29:40.564Z,9.47
2019-02-11T17:32:09.511Z,10.23
2019-02-11T17:34:35.676Z,9.27
2019-02-11T17:37:01.858Z,11.97
2019-02-11T17:39:28.105Z,8.37
2019-02-11T17:41:54.264Z,10.60
2019-02-11T17:44:20.420Z,14.30
2019-02-11T17:46:46.711Z,11.70
2019-02-11T17:49:17.745Z,9.47
2019-02-11T17:51:41.295Z,10.43
2019-02-11T17:54:07.479Z,12.50
2019-02-11T17:56:33.631Z,8.10
2019-02-11T17:58:59.812Z,14.73
2019-02-11T18:01:25.966Z,15.03
2019-02-11T18:03:52.442Z,14.30
2019-02-11T18:06:18.864Z,10.23
2019-02-11T18:08:45.147Z,12.43
2019-02-11T18:11:12.111Z,12.23
2019-02-11T18:13:38.387Z,9.70
2019-02-11T18:16:04.689Z,15.37
2019-02-11T18:18:32.677Z,16.63
2019-02-11T18:20:59.423Z,17.77
2019-02-11T18:23:25.718Z,17.73
2019-02-11T18:25:52.279Z,13.57
2019-02-11T18:28:18.931Z,17.13
2019-02-11T18:30:45.329Z,15.00
2019-02-11T18:33:11.829Z,10.80
2019-02-11T18:35:38.348Z,13.30
2019-02-11T18:38:04.870Z,14.47
2019-02-11T18:40:31.168Z,12.03
2019-02-11T18:42:57.584Z,13.70
2019-02-11T18:45:24.075Z,16.17
2019-02-11T18:47:50.702Z,13.07
2019-02-11T18:50:17.015Z,17.33
2019-02-11T18:52:43.746Z,15.30
2019-02-11T18:55:18.787Z,15.50
2019-02-11T18:57:45.259Z,21.80
2019-02-11T19:00:17.984Z,18.60
2019-02-11T19:02:44.894Z,19.30
2019-02-11T19:05:11.306Z,19.47
2019-02-11T19:07:37.477Z,19.63
2019-02-11T19:10:07.183Z,18.33
2019-02-11T19:12:33.361Z,12.57
2019-02-11T19:14:59.740Z,22.80
2019-02-11T19:17:25.896Z,13.93
2019-02-11T19:19:52.040Z,14.43
2019-02-11T19:22:18.442Z,19.67
2019-02-11T19:24:44.642Z,17.93
2019-02-11T19:27:10.787Z,17.50
2019-02-11T19:29:36.926Z,16.30
2019-02-11T19:32:03.089Z,14.90
2019-02-11T19:34:29.243Z,18.57
2019-02-11T19:36:56.442Z,16.63
2019-02-11T19:39:22.566Z,17.90
2019-02-11T19:41:48.728Z,14.73
2019-02-11T19:44:14.911Z,20.53
2019-02-11T19:46:41.121Z,15.20
2019-02-11T19:49:07.274Z,14.90
2019-02-11T19:51:33.424Z,12.70
2019-02-11T19:53:59.827Z,15.57
2019-02-11T19:56:25.988Z,18.33
2019-02-11T19:58:52.139Z,17.20
2019-02-11T20:01:18.284Z,17.87
2019-02-11T20:03:44.437Z,14.73
2019-02-11T20:06:10.816Z,17.23
2019-02-11T20:08:36.975Z,22.80
2019-02-11T20:11:03.116Z,13.90
2019-02-11T20:13:29.500Z,17.07
2019-02-11T20:15:55.682Z,19.37
2019-02-11T20:18:21.866Z,13.73
2019-02-11T20:20:48.030Z,20.20
2019-02-11T20:23:14.187Z,18.60
2019-02-11T20:25:40.386Z,16.30
2019-02-11T20:28:06.535Z,19.07
2019-02-11T20:30:32.700Z,17.70
2019-02-11T20:32:58.860Z,18.53
2019-02-11T20:35:25.312Z,17.40
2019-02-11T20:37:51.780Z,18.43
2019-02-11T20:40:23.771Z,19.43
2019-02-11T20:42:49.932Z,22.30
2019-02-11T20:45:18.204Z,17.93
2019-02-11T20:47:44.452Z,16.93
2019-02-11T20:50:12.201Z,16.40
2019-02-11T20:52:38.483Z,16.53
2019-02-11T20:55:11.484Z,15.03
2019-02-11T20:57:37.740Z,16.87
2019-02-11T21:00:10.376Z,16.00
2019-02-11T21:02:36.619Z,16.53
2019-02-11T21:05:05.476Z,17.60
2019-02-11T21:07:31.645Z,14.10
2019-02-11T21:09:57.867Z,16.90
2019-02-11T21:12:24.060Z,14.47
2019-02-11T21:14:50.194Z,18.50
2019-02-11T21:17:16.336Z,21.27
2019-02-11T21:19:42.488Z,14.43
2019-02-11T21:22:08.646Z,16.50
2019-02-11T21:24:34.812Z,19.93
2019-02-11T21:27:00.954Z,13.80
2019-02-11T21:29:27.104Z,14.57
2019-02-11T21:31:53.264Z,13.80
2019-02-11T21:34:19.412Z,21.87
2019-02-11T21:36:45.822Z,15.53
2019-02-11T21:39:11.995Z,18.10
2019-02-11T21:41:38.230Z,14.40
2019-02-11T21:44:04.486Z,16.33
2019-02-11T21:46:30.663Z,16.47
2019-02-11T21:48:56.816Z,15.83
2019-02-11T21:51:22.963Z,22.83
2019-02-11T21:53:49.110Z,17.03
2019-02-11T21:56:15.267Z,18.40
2019-02-11T21:58:41.675Z,12.70
2019-02-11T22:01:07.838Z,17.63
2019-02-11T22:03:34.231Z,16.23
2019-02-11T22:06:00.387Z,13.70
2019-02-11T22:08:26.530Z,15.83
2019-02-11T22:10:52.727Z,17.47
2019-02-11T22:13:18.883Z,16.17
2019-02-11T22:15:45.420Z,15.37
2019-02-11T22:18:11.679Z,15.03
2019-02-11T22:20:37.949Z,13.77
2019-02-11T22:23:04.146Z,17.17
2019-02-11T22:25:30.605Z,15.90
2019-02-11T22:27:56.823Z,14.20
2019-02-11T22:30:22.984Z,15.37
2019-02-11T22:32:49.137Z,13.47
2019-02-11T22:35:15.475Z,15.07
2019-02-11T22:37:42.073Z,13.83
2019-02-11T22:40:10.625Z,19.20
2019-02-11T22:42:37.203Z,19.17
2019-02-11T22:45:07.146Z,16.93
2019-02-11T22:47:33.280Z,13.53
2019-02-11T22:49:59.464Z,18.13
2019-02-11T22:52:25.613Z,20.80
2019-02-11T22:54:51.775Z,23.77
2019-02-11T22:57:17.976Z,17.40
2019-02-11T22:59:44.161Z,15.77
2019-02-11T23:02:10.404Z,15.87
2019-02-11T23:04:36.564Z,17.83
2019-02-11T23:07:02.698Z,13.63
2019-02-11T23:09:29.181Z,15.83
2019-02-11T23:11:55.582Z,15.97
2019-02-11T23:14:21.824Z,16.67
2019-02-11T23:16:47.975Z,19.07
2019-02-11T23:19:32.505Z,16.47
2019-02-11T23:21:58.685Z,18.50
2019-02-11T23:24:24.841Z,19.80
2019-02-11T23:26:50.997Z,19.13
2019-02-11T23:29:17.159Z,15.23
2019-02-11T23:31:43.342Z,19.37
2019-02-11T23:34:09.513Z,18.70
2019-02-11T23:36:35.769Z,18.73
2019-02-11T23:39:03.527Z,16.37
2019-02-11T23:41:31.107Z,18.37
2019-02-11T23:43:57.578Z,17.47
2019-02-11T23:46:23.723Z,24.97
2019-02-11T23:48:49.884Z,17.13
2019-02-11T23:51:16.044Z,22.90
2019-02-11T23:53:42.463Z,12.67
2019-02-11T23:56:08.941Z,22.73
2019-02-11T23:58:35.121Z,15.03
